sensor_id;sensor_type;location;lat;lon;timestamp;temperature;humidity
40077;DHT22;25777;47.824;18.982;2022-08-19T00:01:47;22.70;99.90
40077;DHT22;25777;47.824;18.982;2022-08-19T00:04:14;22.70;99.90
40077;DHT22;25777;47.824;18.982;2022-08-19T00:06:41;22.70;99.90
40077;DHT22;25777;47.824;18.982;2022-08-19T00:09:08;22.70;99.90
40077;DHT22;25777;47.824;18.982;2022-08-19T00:11:34;22.70;99.90
40077;DHT22;25777;47.824;18.982;2022-08-19T00:14:01;22.60;99.90
40077;DHT22;25777;47.824;18.982;2022-08-19T00:16:27;22.50;99.90
40077;DHT22;25777;47.824;18.982;2022-08-19T00:18:53;22.50;99.90
40077;DHT22;25777;47.824;18.982;2022-08-19T00:21:21;22.40;99.90
40077;DHT22;25777;47.824;18.982;2022-08-19T00:23:47;22.40;99.90
40077;DHT22;25777;47.824;18.982;2022-08-19T00:26:13;22.30;99.90
40077;DHT22;25777;47.824;18.982;2022-08-19T00:28:38;22.30;99.90
40077;DHT22;25777;47.824;18.982;2022-08-19T00:31:05;22.30;99.90
40077;DHT22;25777;47.824;18.982;2022-08-19T00:33:31;22.10;99.90
40077;DHT22;25777;47.824;18.982;2022-08-19T00:35:58;22.10;99.90
40077;DHT22;25777;47.824;18.982;2022-08-19T00:38:24;22.00;99.90
40077;DHT22;25777;47.824;18.982;2022-08-19T00:40:50;22.00;99.90
40077;DHT22;25777;47.824;18.982;2022-08-19T00:43:18;21.90;99.90
40077;DHT22;25777;47.824;18.982;2022-08-19T00:45:44;21.90;99.90
40077;DHT22;25777;47.824;18.982;2022-08-19T00:48:10;21.80;99.90
40077;DHT22;25777;47.824;18.982;2022-08-19T00:50:36;21.90;99.90
40077;DHT22;25777;47.824;18.982;2022-08-19T00:53:05;21.80;99.90
40077;DHT22;25777;47.824;18.982;2022-08-19T00:55:31;21.80;99.90
40077;DHT22;25777;47.824;18.982;2022-08-19T00:57:59;21.70;99.90
40077;DHT22;25777;47.824;18.982;2022-08-19T01:00:26;21.60;99.90
40077;DHT22;25777;47.824;18.982;2022-08-19T01:02:52;21.50;99.90
40077;DHT22;25777;47.824;18.982;2022-08-19T01:05:20;21.50;99.90
40077;DHT22;25777;47.824;18.982;2022-08-19T01:07:46;21.50;99.90
40077;DHT22;25777;47.824;18.982;2022-08-19T01:10:19;21.40;99.90
40077;DHT22;25777;47.824;18.982;2022-08-19T01:12:45;21.40;99.90
40077;DHT22;25777;47.824;18.982;2022-08-19T01:15:12;21.30;99.90
40077;DHT22;25777;47.824;18.982;2022-08-19T01:17:39;21.30;99.90
40077;DHT22;25777;47.824;18.982;2022-08-19T01:20:05;21.30;99.90
40077;DHT22;25777;47.824;18.982;2022-08-19T01:22:41;21.20;99.90
40077;DHT22;25777;47.824;18.982;2022-08-19T01:25:08;21.20;99.90
40077;DHT22;25777;47.824;18.982;2022-08-19T01:27:38;21.20;99.90
40077;DHT22;25777;47.824;18.982;2022-08-19T01:30:04;21.10;99.90
40077;DHT22;25777;47.824;18.982;2022-08-19T01:32:31;21.10;99.90
40077;DHT22;25777;47.824;18.982;2022-08-19T01:34:56;21.10;99.90
40077;DHT22;25777;47.824;18.982;2022-08-19T01:37:23;21.10;99.90
40077;DHT22;25777;47.824;18.982;2022-08-19T01:39:49;21.10;99.90
40077;DHT22;25777;47.824;18.982;2022-08-19T01:42:15;21.10;99.90
40077;DHT22;25777;47.824;18.982;2022-08-19T01:44:41;21.00;99.90
40077;DHT22;25777;47.824;18.982;2022-08-19T01:47:07;21.00;99.90
40077;DHT22;25777;47.824;18.982;2022-08-19T01:49:34;20.90;99.90
40077;DHT22;25777;47.824;18.982;2022-08-19T01:52:00;20.90;99.90
40077;DHT22;25777;47.824;18.982;2022-08-19T01:54:26;20.80;99.90
40077;DHT22;25777;47.824;18.982;2022-08-19T01:56:52;20.80;99.90
40077;DHT22;25777;47.824;18.982;2022-08-19T01:59:20;20.70;99.90
40077;DHT22;25777;47.824;18.982;2022-08-19T02:01:47;20.70;99.90
40077;DHT22;25777;47.824;18.982;2022-08-19T02:04:13;20.60;99.90
40077;DHT22;25777;47.824;18.982;2022-08-19T02:06:39;20.50;99.90
40077;DHT22;25777;47.824;18.982;2022-08-19T02:09:05;20.50;99.90
40077;DHT22;25777;47.824;18.982;2022-08-19T02:11:33;20.50;99.90
40077;DHT22;25777;47.824;18.982;2022-08-19T02:14:00;20.50;99.90
40077;DHT22;25777;47.824;18.982;2022-08-19T02:16:27;20.40;99.90
40077;DHT22;25777;47.824;18.982;2022-08-19T02:18:53;20.30;99.90
40077;DHT22;25777;47.824;18.982;2022-08-19T02:21:20;20.20;99.90
40077;DHT22;25777;47.824;18.982;2022-08-19T02:23:47;20.30;99.90
40077;DHT22;25777;47.824;18.982;2022-08-19T02:26:13;20.30;99.90
40077;DHT22;25777;47.824;18.982;2022-08-19T02:28:39;20.30;99.90
40077;DHT22;25777;47.824;18.982;2022-08-19T02:31:09;20.40;99.90
40077;DHT22;25777;47.824;18.982;2022-08-19T02:33:34;20.30;99.90
40077;DHT22;25777;47.824;18.982;2022-08-19T02:36:02;20.20;99.90
40077;DHT22;25777;47.824;18.982;2022-08-19T02:38:28;20.10;99.90
40077;DHT22;25777;47.824;18.982;2022-08-19T02:40:55;20.20;99.90
40077;DHT22;25777;47.824;18.982;2022-08-19T02:43:22;20.10;99.90
40077;DHT22;25777;47.824;18.982;2022-08-19T02:45:48;20.10;99.90
40077;DHT22;25777;47.824;18.982;2022-08-19T02:48:15;20.10;99.90
40077;DHT22;25777;47.824;18.982;2022-08-19T02:50:42;20.10;99.90
40077;DHT22;25777;47.824;18.982;2022-08-19T02:53:08;20.00;99.90
40077;DHT22;25777;47.824;18.982;2022-08-19T02:55:34;20.00;99.90
40077;DHT22;25777;47.824;18.982;2022-08-19T02:58:00;19.90;99.90
40077;DHT22;25777;47.824;18.982;2022-08-19T03:00:26;19.80;99.90
40077;DHT22;25777;47.824;18.982;2022-08-19T03:02:52;19.90;99.90
40077;DHT22;25777;47.824;18.982;2022-08-19T03:05:18;19.90;99.90
40077;DHT22;25777;47.824;18.982;2022-08-19T03:07:43;19.80;99.90
40077;DHT22;25777;47.824;18.982;2022-08-19T03:10:10;19.80;99.90
40077;DHT22;25777;47.824;18.982;2022-08-19T03:12:37;19.80;99.90
40077;DHT22;25777;47.824;18.982;2022-08-19T03:15:03;19.80;99.90
40077;DHT22;25777;47.824;18.982;2022-08-19T03:17:29;19.70;99.90
40077;DHT22;25777;47.824;18.982;2022-08-19T03:19:55;19.80;99.90
40077;DHT22;25777;47.824;18.982;2022-08-19T03:22:20;19.70;99.90
40077;DHT22;25777;47.824;18.982;2022-08-19T03:24:47;19.70;99.90
40077;DHT22;25777;47.824;18.982;2022-08-19T03:27:12;19.60;99.90
40077;DHT22;25777;47.824;18.982;2022-08-19T03:29:39;19.70;99.90
40077;DHT22;25777;47.824;18.982;2022-08-19T03:32:05;19.60;99.90
40077;DHT22;25777;47.824;18.982;2022-08-19T03:34:32;19.70;99.90
40077;DHT22;25777;47.824;18.982;2022-08-19T03:36:59;19.60;99.90
40077;DHT22;25777;47.824;18.982;2022-08-19T03:39:25;19.60;99.90
40077;DHT22;25777;47.824;18.982;2022-08-19T03:41:52;19.60;99.90
40077;DHT22;25777;47.824;18.982;2022-08-19T03:44:19;19.50;99.90
40077;DHT22;25777;47.824;18.982;2022-08-19T03:46:46;19.50;99.90
40077;DHT22;25777;47.824;18.982;2022-08-19T03:49:12;19.50;99.90
40077;DHT22;25777;47.824;18.982;2022-08-19T03:51:38;19.50;99.90
40077;DHT22;25777;47.824;18.982;2022-08-19T03:54:05;19.40;99.90
40077;DHT22;25777;47.824;18.982;2022-08-19T03:56:34;19.40;99.90
40077;DHT22;25777;47.824;18.982;2022-08-19T03:59:00;19.50;99.90
40077;DHT22;25777;47.824;18.982;2022-08-19T04:01:27;19.50;99.90
40077;DHT22;25777;47.824;18.982;2022-08-19T04:03:53;19.50;99.90
40077;DHT22;25777;47.824;18.982;2022-08-19T04:06:20;19.40;99.90
40077;DHT22;25777;47.824;18.982;2022-08-19T04:08:49;19.40;99.90
40077;DHT22;25777;47.824;18.982;2022-08-19T04:11:23;19.40;99.90
40077;DHT22;25777;47.824;18.982;2022-08-19T04:13:50;19.50;99.90
40077;DHT22;25777;47.824;18.982;2022-08-19T04:16:20;19.50;99.90
40077;DHT22;25777;47.824;18.982;2022-08-19T04:18:47;19.50;99.90
40077;DHT22;25777;47.824;18.982;2022-08-19T04:21:16;19.40;99.90
40077;DHT22;25777;47.824;18.982;2022-08-19T04:23:42;19.40;99.90
40077;DHT22;25777;47.824;18.982;2022-08-19T04:26:12;19.50;99.90
40077;DHT22;25777;47.824;18.982;2022-08-19T04:28:38;19.60;99.90
40077;DHT22;25777;47.824;18.982;2022-08-19T04:31:04;19.70;99.90
40077;DHT22;25777;47.824;18.982;2022-08-19T04:33:30;19.70;99.90
40077;DHT22;25777;47.824;18.982;2022-08-19T04:35:55;19.60;99.90
40077;DHT22;25777;47.824;18.982;2022-08-19T04:38:24;19.60;99.90
40077;DHT22;25777;47.824;18.982;2022-08-19T04:40:50;19.70;99.90
40077;DHT22;25777;47.824;18.982;2022-08-19T04:43:35;19.70;99.90
40077;DHT22;25777;47.824;18.982;2022-08-19T04:46:11;19.70;99.90
40077;DHT22;25777;47.824;18.982;2022-08-19T04:48:37;19.90;99.90
40077;DHT22;25777;47.824;18.982;2022-08-19T04:51:06;19.80;99.90
40077;DHT22;25777;47.824;18.982;2022-08-19T04:53:33;19.90;99.90
40077;DHT22;25777;47.824;18.982;2022-08-19T04:55:59;20.00;99.90
40077;DHT22;25777;47.824;18.982;2022-08-19T04:58:26;20.00;99.90
40077;DHT22;25777;47.824;18.982;2022-08-19T05:00:52;20.10;99.90
40077;DHT22;25777;47.824;18.982;2022-08-19T05:03:18;20.30;99.90
40077;DHT22;25777;47.824;18.982;2022-08-19T05:05:45;20.30;99.90
40077;DHT22;25777;47.824;18.982;2022-08-19T05:08:11;20.50;99.90
40077;DHT22;25777;47.824;18.982;2022-08-19T05:10:37;20.70;99.90
40077;DHT22;25777;47.824;18.982;2022-08-19T05:13:04;20.70;99.90
40077;DHT22;25777;47.824;18.982;2022-08-19T05:15:29;20.80;99.90
40077;DHT22;25777;47.824;18.982;2022-08-19T05:17:55;20.90;99.90
40077;DHT22;25777;47.824;18.982;2022-08-19T05:20:39;21.00;99.90
40077;DHT22;25777;47.824;18.982;2022-08-19T05:23:23;21.00;99.90
40077;DHT22;25777;47.824;18.982;2022-08-19T05:25:50;21.00;99.90
40077;DHT22;25777;47.824;18.982;2022-08-19T05:28:16;21.20;99.90
40077;DHT22;25777;47.824;18.982;2022-08-19T05:30:42;21.30;99.90
40077;DHT22;25777;47.824;18.982;2022-08-19T05:33:10;21.30;99.90
40077;DHT22;25777;47.824;18.982;2022-08-19T05:35:38;21.40;99.90
40077;DHT22;25777;47.824;18.982;2022-08-19T05:38:05;21.50;99.90
40077;DHT22;25777;47.824;18.982;2022-08-19T05:40:33;21.70;99.90
40077;DHT22;25777;47.824;18.982;2022-08-19T05:42:59;22.00;99.90
40077;DHT22;25777;47.824;18.982;2022-08-19T05:45:24;22.00;99.90
40077;DHT22;25777;47.824;18.982;2022-08-19T05:47:50;22.10;99.90
40077;DHT22;25777;47.824;18.982;2022-08-19T05:50:16;22.30;99.90
40077;DHT22;25777;47.824;18.982;2022-08-19T05:52:42;22.50;99.90
40077;DHT22;25777;47.824;18.982;2022-08-19T05:55:08;22.70;99.90
40077;DHT22;25777;47.824;18.982;2022-08-19T05:57:35;22.80;99.90
40077;DHT22;25777;47.824;18.982;2022-08-19T06:00:01;22.90;99.90
40077;DHT22;25777;47.824;18.982;2022-08-19T06:02:33;23.00;99.90
40077;DHT22;25777;47.824;18.982;2022-08-19T06:04:58;23.30;99.90
40077;DHT22;25777;47.824;18.982;2022-08-19T06:07:24;23.70;99.90
40077;DHT22;25777;47.824;18.982;2022-08-19T06:09:50;23.90;99.90
40077;DHT22;25777;47.824;18.982;2022-08-19T06:12:16;24.10;99.90
40077;DHT22;25777;47.824;18.982;2022-08-19T06:14:41;24.30;99.90
40077;DHT22;25777;47.824;18.982;2022-08-19T06:17:07;24.50;99.90
40077;DHT22;25777;47.824;18.982;2022-08-19T06:19:33;24.70;99.90
40077;DHT22;25777;47.824;18.982;2022-08-19T06:21:59;24.70;99.90
40077;DHT22;25777;47.824;18.982;2022-08-19T06:24:25;24.80;99.90
40077;DHT22;25777;47.824;18.982;2022-08-19T06:26:52;25.00;99.90
40077;DHT22;25777;47.824;18.982;2022-08-19T06:29:19;25.10;99.90
40077;DHT22;25777;47.824;18.982;2022-08-19T06:31:46;25.20;99.90
40077;DHT22;25777;47.824;18.982;2022-08-19T06:34:15;25.30;99.90
40077;DHT22;25777;47.824;18.982;2022-08-19T06:36:41;25.40;99.90
40077;DHT22;25777;47.824;18.982;2022-08-19T06:39:09;25.50;99.90
40077;DHT22;25777;47.824;18.982;2022-08-19T06:41:40;25.50;99.90
40077;DHT22;25777;47.824;18.982;2022-08-19T06:44:06;25.60;99.90
40077;DHT22;25777;47.824;18.982;2022-08-19T06:46:32;25.60;99.90
40077;DHT22;25777;47.824;18.982;2022-08-19T06:48:57;25.90;99.90
40077;DHT22;25777;47.824;18.982;2022-08-19T06:51:23;26.00;99.90
40077;DHT22;25777;47.824;18.982;2022-08-19T06:53:51;26.10;99.90
40077;DHT22;25777;47.824;18.982;2022-08-19T06:56:18;26.10;99.60
40077;DHT22;25777;47.824;18.982;2022-08-19T06:58:46;26.20;99.60
40077;DHT22;25777;47.824;18.982;2022-08-19T07:01:12;26.40;99.10
40077;DHT22;25777;47.824;18.982;2022-08-19T07:03:38;26.40;98.50
40077;DHT22;25777;47.824;18.982;2022-08-19T07:06:10;26.50;98.40
40077;DHT22;25777;47.824;18.982;2022-08-19T07:08:37;26.60;98.80
40077;DHT22;25777;47.824;18.982;2022-08-19T07:11:06;26.60;99.20
40077;DHT22;25777;47.824;18.982;2022-08-19T07:13:32;26.60;99.20
40077;DHT22;25777;47.824;18.982;2022-08-19T07:16:05;26.70;98.60
40077;DHT22;25777;47.824;18.982;2022-08-19T07:18:31;26.80;98.50
40077;DHT22;25777;47.824;18.982;2022-08-19T07:21:08;26.90;98.60
40077;DHT22;25777;47.824;18.982;2022-08-19T07:23:34;26.90;98.30
40077;DHT22;25777;47.824;18.982;2022-08-19T07:26:06;27.10;98.70
40077;DHT22;25777;47.824;18.982;2022-08-19T07:28:32;27.10;98.50
40077;DHT22;25777;47.824;18.982;2022-08-19T07:30:58;27.10;96.70
40077;DHT22;25777;47.824;18.982;2022-08-19T07:33:24;27.10;96.80
40077;DHT22;25777;47.824;18.982;2022-08-19T07:35:49;27.30;96.80
40077;DHT22;25777;47.824;18.982;2022-08-19T07:38:15;27.40;96.10
40077;DHT22;25777;47.824;18.982;2022-08-19T07:40:41;27.50;95.60
40077;DHT22;25777;47.824;18.982;2022-08-19T07:43:08;27.60;95.40
40077;DHT22;25777;47.824;18.982;2022-08-19T07:45:34;27.80;94.50
40077;DHT22;25777;47.824;18.982;2022-08-19T07:48:00;28.00;95.40
40077;DHT22;25777;47.824;18.982;2022-08-19T07:50:26;28.30;94.20
40077;DHT22;25777;47.824;18.982;2022-08-19T07:52:51;28.30;93.40
40077;DHT22;25777;47.824;18.982;2022-08-19T07:55:21;28.40;93.70
40077;DHT22;25777;47.824;18.982;2022-08-19T07:57:47;28.50;93.30
40077;DHT22;25777;47.824;18.982;2022-08-19T08:00:12;28.60;92.90
40077;DHT22;25777;47.824;18.982;2022-08-19T08:02:38;28.80;92.70
40077;DHT22;25777;47.824;18.982;2022-08-19T08:05:04;29.10;92.20
40077;DHT22;25777;47.824;18.982;2022-08-19T08:07:48;29.30;91.90
40077;DHT22;25777;47.824;18.982;2022-08-19T08:10:33;29.40;92.00
40077;DHT22;25777;47.824;18.982;2022-08-19T08:12:58;29.60;91.80
40077;DHT22;25777;47.824;18.982;2022-08-19T08:15:24;29.60;90.00
40077;DHT22;25777;47.824;18.982;2022-08-19T08:17:50;29.60;90.90
40077;DHT22;25777;47.824;18.982;2022-08-19T08:20:16;29.80;90.70
40077;DHT22;25777;47.824;18.982;2022-08-19T08:22:42;30.00;90.80
40077;DHT22;25777;47.824;18.982;2022-08-19T08:25:27;30.10;89.50
40077;DHT22;25777;47.824;18.982;2022-08-19T08:27:52;30.10;88.40
40077;DHT22;25777;47.824;18.982;2022-08-19T08:30:22;30.40;88.90
40077;DHT22;25777;47.824;18.982;2022-08-19T08:32:49;30.60;87.50
40077;DHT22;25777;47.824;18.982;2022-08-19T08:35:15;30.60;86.10
40077;DHT22;25777;47.824;18.982;2022-08-19T08:37:42;30.50;85.50
40077;DHT22;25777;47.824;18.982;2022-08-19T08:40:30;30.60;86.10
40077;DHT22;25777;47.824;18.982;2022-08-19T08:42:59;30.90;85.70
40077;DHT22;25777;47.824;18.982;2022-08-19T08:45:30;31.10;84.60
40077;DHT22;25777;47.824;18.982;2022-08-19T08:47:56;31.10;83.70
40077;DHT22;25777;47.824;18.982;2022-08-19T08:50:27;31.20;80.30
40077;DHT22;25777;47.824;18.982;2022-08-19T08:52:56;31.40;82.30
40077;DHT22;25777;47.824;18.982;2022-08-19T08:55:26;31.50;80.50
40077;DHT22;25777;47.824;18.982;2022-08-19T08:58:01;31.70;80.00
40077;DHT22;25777;47.824;18.982;2022-08-19T09:00:31;31.50;79.20
40077;DHT22;25777;47.824;18.982;2022-08-19T09:02:57;31.70;79.80
40077;DHT22;25777;47.824;18.982;2022-08-19T09:05:23;32.10;78.60
40077;DHT22;25777;47.824;18.982;2022-08-19T09:08:05;32.30;76.80
40077;DHT22;25777;47.824;18.982;2022-08-19T09:10:38;32.50;75.80
40077;DHT22;25777;47.824;18.982;2022-08-19T09:13:15;32.60;75.20
40077;DHT22;25777;47.824;18.982;2022-08-19T09:15:52;32.70;74.70
40077;DHT22;25777;47.824;18.982;2022-08-19T09:18:20;33.00;72.60
40077;DHT22;25777;47.824;18.982;2022-08-19T09:20:46;33.10;71.20
40077;DHT22;25777;47.824;18.982;2022-08-19T09:23:14;33.20;70.40
40077;DHT22;25777;47.824;18.982;2022-08-19T09:25:40;33.30;68.90
40077;DHT22;25777;47.824;18.982;2022-08-19T09:28:06;33.40;68.50
40077;DHT22;25777;47.824;18.982;2022-08-19T09:30:34;33.60;68.10
40077;DHT22;25777;47.824;18.982;2022-08-19T09:33:00;33.80;67.00
40077;DHT22;25777;47.824;18.982;2022-08-19T09:35:27;33.80;67.00
40077;DHT22;25777;47.824;18.982;2022-08-19T09:37:54;33.80;65.40
40077;DHT22;25777;47.824;18.982;2022-08-19T09:40:20;33.80;64.70
40077;DHT22;25777;47.824;18.982;2022-08-19T09:42:45;34.00;63.30
40077;DHT22;25777;47.824;18.982;2022-08-19T09:45:13;34.10;62.60
40077;DHT22;25777;47.824;18.982;2022-08-19T09:47:38;34.00;63.00
40077;DHT22;25777;47.824;18.982;2022-08-19T09:50:05;34.00;64.20
40077;DHT22;25777;47.824;18.982;2022-08-19T09:52:32;34.20;63.20
40077;DHT22;25777;47.824;18.982;2022-08-19T09:54:58;34.50;65.90
40077;DHT22;25777;47.824;18.982;2022-08-19T09:57:24;34.70;61.40
40077;DHT22;25777;47.824;18.982;2022-08-19T09:59:49;34.70;63.10
40077;DHT22;25777;47.824;18.982;2022-08-19T10:02:15;34.90;62.70
40077;DHT22;25777;47.824;18.982;2022-08-19T10:04:41;34.80;61.30
40077;DHT22;25777;47.824;18.982;2022-08-19T10:07:25;34.70;60.60
40077;DHT22;25777;47.824;18.982;2022-08-19T10:09:51;34.70;60.20
40077;DHT22;25777;47.824;18.982;2022-08-19T10:12:16;34.90;60.60
40077;DHT22;25777;47.824;18.982;2022-08-19T10:14:42;35.00;60.00
40077;DHT22;25777;47.824;18.982;2022-08-19T10:17:08;34.90;58.70
40077;DHT22;25777;47.824;18.982;2022-08-19T10:19:33;34.90;60.90
40077;DHT22;25777;47.824;18.982;2022-08-19T10:22:04;35.50;60.50
40077;DHT22;25777;47.824;18.982;2022-08-19T10:24:31;35.70;59.20
40077;DHT22;25777;47.824;18.982;2022-08-19T10:26:56;35.50;58.70
40077;DHT22;25777;47.824;18.982;2022-08-19T10:29:22;35.40;58.40
40077;DHT22;25777;47.824;18.982;2022-08-19T10:31:48;35.60;59.30
40077;DHT22;25777;47.824;18.982;2022-08-19T10:34:13;36.00;59.30
40077;DHT22;25777;47.824;18.982;2022-08-19T10:36:39;36.10;58.30
40077;DHT22;25777;47.824;18.982;2022-08-19T10:39:07;36.10;58.10
40077;DHT22;25777;47.824;18.982;2022-08-19T10:41:33;36.00;57.40
40077;DHT22;25777;47.824;18.982;2022-08-19T10:44:07;35.70;57.40
40077;DHT22;25777;47.824;18.982;2022-08-19T10:46:35;35.70;58.00
40077;DHT22;25777;47.824;18.982;2022-08-19T10:49:02;35.80;56.90
40077;DHT22;25777;47.824;18.982;2022-08-19T10:51:28;36.00;58.80
40077;DHT22;25777;47.824;18.982;2022-08-19T10:54:12;35.90;56.90
40077;DHT22;25777;47.824;18.982;2022-08-19T10:56:38;36.30;56.50
40077;DHT22;25777;47.824;18.982;2022-08-19T10:59:18;36.50;56.70
40077;DHT22;25777;47.824;18.982;2022-08-19T11:01:44;36.40;55.40
40077;DHT22;25777;47.824;18.982;2022-08-19T11:04:10;36.20;55.50
40077;DHT22;25777;47.824;18.982;2022-08-19T11:06:41;36.30;55.20
40077;DHT22;25777;47.824;18.982;2022-08-19T11:09:09;36.30;57.10
40077;DHT22;25777;47.824;18.982;2022-08-19T11:11:36;36.20;55.90
40077;DHT22;25777;47.824;18.982;2022-08-19T11:14:06;36.50;55.30
40077;DHT22;25777;47.824;18.982;2022-08-19T11:16:32;36.30;55.40
40077;DHT22;25777;47.824;18.982;2022-08-19T11:18:58;36.70;55.60
40077;DHT22;25777;47.824;18.982;2022-08-19T11:21:25;36.60;54.90
40077;DHT22;25777;47.824;18.982;2022-08-19T11:23:52;36.10;55.40
40077;DHT22;25777;47.824;18.982;2022-08-19T11:26:18;36.30;55.60
40077;DHT22;25777;47.824;18.982;2022-08-19T11:28:45;36.30;55.70
40077;DHT22;25777;47.824;18.982;2022-08-19T11:31:14;36.40;55.80
40077;DHT22;25777;47.824;18.982;2022-08-19T11:33:40;36.60;55.30
40077;DHT22;25777;47.824;18.982;2022-08-19T11:36:07;36.50;54.70
40077;DHT22;25777;47.824;18.982;2022-08-19T11:38:33;36.50;55.30
40077;DHT22;25777;47.824;18.982;2022-08-19T11:41:02;36.70;56.10
40077;DHT22;25777;47.824;18.982;2022-08-19T11:43:29;36.50;54.60
40077;DHT22;25777;47.824;18.982;2022-08-19T11:45:55;36.20;54.10
40077;DHT22;25777;47.824;18.982;2022-08-19T11:48:22;36.30;55.70
40077;DHT22;25777;47.824;18.982;2022-08-19T11:50:48;36.50;55.10
40077;DHT22;25777;47.824;18.982;2022-08-19T11:53:14;36.60;54.40
40077;DHT22;25777;47.824;18.982;2022-08-19T11:55:40;36.40;55.00
40077;DHT22;25777;47.824;18.982;2022-08-19T11:58:07;36.30;55.60
40077;DHT22;25777;47.824;18.982;2022-08-19T12:00:33;36.20;54.60
40077;DHT22;25777;47.824;18.982;2022-08-19T12:03:01;36.20;55.30
40077;DHT22;25777;47.824;18.982;2022-08-19T12:05:26;36.00;54.50
40077;DHT22;25777;47.824;18.982;2022-08-19T12:07:52;36.20;56.30
40077;DHT22;25777;47.824;18.982;2022-08-19T12:10:20;36.20;54.90
40077;DHT22;25777;47.824;18.982;2022-08-19T12:12:45;36.10;54.40
40077;DHT22;25777;47.824;18.982;2022-08-19T12:15:12;36.10;54.60
40077;DHT22;25777;47.824;18.982;2022-08-19T12:17:38;35.80;54.20
40077;DHT22;25777;47.824;18.982;2022-08-19T12:20:04;35.50;56.80
40077;DHT22;25777;47.824;18.982;2022-08-19T12:22:30;35.40;57.00
40077;DHT22;25777;47.824;18.982;2022-08-19T12:24:55;35.50;56.20
40077;DHT22;25777;47.824;18.982;2022-08-19T12:27:21;35.60;56.70
40077;DHT22;25777;47.824;18.982;2022-08-19T12:29:47;35.60;55.40
40077;DHT22;25777;47.824;18.982;2022-08-19T12:32:14;35.60;55.40
40077;DHT22;25777;47.824;18.982;2022-08-19T12:34:40;35.50;56.10
40077;DHT22;25777;47.824;18.982;2022-08-19T12:37:06;35.40;55.80
40077;DHT22;25777;47.824;18.982;2022-08-19T12:39:39;35.40;57.90
40077;DHT22;25777;47.824;18.982;2022-08-19T12:42:06;35.50;56.10
40077;DHT22;25777;47.824;18.982;2022-08-19T12:44:33;35.50;55.30
40077;DHT22;25777;47.824;18.982;2022-08-19T12:46:59;35.50;56.40
40077;DHT22;25777;47.824;18.982;2022-08-19T12:49:26;35.50;55.60
40077;DHT22;25777;47.824;18.982;2022-08-19T12:51:52;35.60;56.20
40077;DHT22;25777;47.824;18.982;2022-08-19T12:54:18;35.70;53.70
40077;DHT22;25777;47.824;18.982;2022-08-19T12:56:43;35.60;53.50
40077;DHT22;25777;47.824;18.982;2022-08-19T12:59:10;35.50;54.50
40077;DHT22;25777;47.824;18.982;2022-08-19T13:01:36;35.40;54.80
40077;DHT22;25777;47.824;18.982;2022-08-19T13:04:02;35.50;54.40
40077;DHT22;25777;47.824;18.982;2022-08-19T13:06:29;35.70;55.00
40077;DHT22;25777;47.824;18.982;2022-08-19T13:08:55;36.00;53.70
40077;DHT22;25777;47.824;18.982;2022-08-19T13:11:22;36.10;54.10
40077;DHT22;25777;47.824;18.982;2022-08-19T13:13:50;36.30;53.40
40077;DHT22;25777;47.824;18.982;2022-08-19T13:16:16;36.20;54.80
40077;DHT22;25777;47.824;18.982;2022-08-19T13:18:42;36.40;53.30
40077;DHT22;25777;47.824;18.982;2022-08-19T13:21:09;36.20;52.70
40077;DHT22;25777;47.824;18.982;2022-08-19T13:23:39;36.20;52.80
40077;DHT22;25777;47.824;18.982;2022-08-19T13:26:06;36.20;52.20
40077;DHT22;25777;47.824;18.982;2022-08-19T13:28:33;36.40;54.20
40077;DHT22;25777;47.824;18.982;2022-08-19T13:31:17;36.50;52.50
40077;DHT22;25777;47.824;18.982;2022-08-19T13:34:02;36.70;51.60
40077;DHT22;25777;47.824;18.982;2022-08-19T13:36:28;36.50;52.00
40077;DHT22;25777;47.824;18.982;2022-08-19T13:38:54;36.10;51.50
40077;DHT22;25777;47.824;18.982;2022-08-19T13:41:20;35.80;52.70
40077;DHT22;25777;47.824;18.982;2022-08-19T13:43:45;35.60;53.10
40077;DHT22;25777;47.824;18.982;2022-08-19T13:46:11;35.60;54.30
40077;DHT22;25777;47.824;18.982;2022-08-19T13:48:40;35.40;54.30
40077;DHT22;25777;47.824;18.982;2022-08-19T13:51:08;35.00;56.60
40077;DHT22;25777;47.824;18.982;2022-08-19T13:53:38;34.80;58.10
40077;DHT22;25777;47.824;18.982;2022-08-19T13:56:08;34.30;57.70
40077;DHT22;25777;47.824;18.982;2022-08-19T13:58:35;34.10;57.40
40077;DHT22;25777;47.824;18.982;2022-08-19T14:01:02;33.30;59.10
40077;DHT22;25777;47.824;18.982;2022-08-19T14:03:28;32.80;60.40
40077;DHT22;25777;47.824;18.982;2022-08-19T14:05:54;32.10;62.00
40077;DHT22;25777;47.824;18.982;2022-08-19T14:08:20;31.60;63.80
40077;DHT22;25777;47.824;18.982;2022-08-19T14:10:45;31.20;64.70
40077;DHT22;25777;47.824;18.982;2022-08-19T14:13:15;31.20;65.00
40077;DHT22;25777;47.824;18.982;2022-08-19T14:15:42;31.10;65.20
40077;DHT22;25777;47.824;18.982;2022-08-19T14:18:08;31.00;65.90
40077;DHT22;25777;47.824;18.982;2022-08-19T14:20:34;30.90;66.00
40077;DHT22;25777;47.824;18.982;2022-08-19T14:23:00;31.00;66.50
40077;DHT22;25777;47.824;18.982;2022-08-19T14:25:28;31.00;66.40
40077;DHT22;25777;47.824;18.982;2022-08-19T14:27:54;31.00;66.30
40077;DHT22;25777;47.824;18.982;2022-08-19T14:30:21;31.00;66.60
40077;DHT22;25777;47.824;18.982;2022-08-19T14:32:47;31.10;66.60
40077;DHT22;25777;47.824;18.982;2022-08-19T14:35:13;31.30;66.40
40077;DHT22;25777;47.824;18.982;2022-08-19T14:37:40;31.10;66.50
40077;DHT22;25777;47.824;18.982;2022-08-19T14:40:06;31.10;65.40
40077;DHT22;25777;47.824;18.982;2022-08-19T14:42:33;30.90;65.00
40077;DHT22;25777;47.824;18.982;2022-08-19T14:44:58;30.80;64.90
40077;DHT22;25777;47.824;18.982;2022-08-19T14:47:25;30.80;65.00
40077;DHT22;25777;47.824;18.982;2022-08-19T14:49:50;30.90;64.40
40077;DHT22;25777;47.824;18.982;2022-08-19T14:52:16;30.80;64.40
40077;DHT22;25777;47.824;18.982;2022-08-19T14:54:41;30.80;64.70
40077;DHT22;25777;47.824;18.982;2022-08-19T14:57:11;30.70;64.10
40077;DHT22;25777;47.824;18.982;2022-08-19T14:59:36;30.40;63.60
40077;DHT22;25777;47.824;18.982;2022-08-19T15:02:03;30.60;64.30
40077;DHT22;25777;47.824;18.982;2022-08-19T15:04:28;30.60;65.00
40077;DHT22;25777;47.824;18.982;2022-08-19T15:06:54;30.70;64.40
40077;DHT22;25777;47.824;18.982;2022-08-19T15:09:20;30.60;64.10
40077;DHT22;25777;47.824;18.982;2022-08-19T15:11:45;30.40;64.40
40077;DHT22;25777;47.824;18.982;2022-08-19T15:14:11;30.40;65.00
40077;DHT22;25777;47.824;18.982;2022-08-19T15:16:39;30.60;64.40